トロムソ の空港の天気 - METARとTAF

トロムソ空港 ( ENTC / TOS ) - ノルウェー トロムス県トロムソ
飛行場実況気象(Metar)
観測時間10/22 12:50 CEST (10/22 10:50 UTC)
風向・風速北 2m/s
視程10km以上
天気現象
少しの雲 雲底高度 790m
全天の4割程度の雲 雲底高度 1400m
全天の8割程度の雲 雲底高度 2680m
気温0℃
湿度74%
気圧1001hPa
METARENTC 221050Z 35003KT 310V050 9999 FEW026 SCT046 BKN088 00/M04 Q1001 TEMPO BKN012 RMK WIND 2600FT 11010KT
過去の天気等 Google飛行場航空写真 Wunderground天気予報

過去48時間のMETAR

飛行場予報(TAF)
発表時間: -
23日2時 CEST ~ 23日8時 CEST に一時的に
全天の8割程度の雲 雲底高度 240m
TAF ENTC 2206/2306 04008KT 9999 FEW015 BKN040
TEMPO 2300/2306 BKN008